Time;durP1;ratioP1;P1;durP2;ratioP2;P2;SDS_P1;SDS_P2;PMS_P1;PMS_P2;Temp;Humidity;BMP_temperature;BMP_pressure;BME280_temperature;BME280_humidity;BME280_pressure;Samples;Min_cycle;Max_cycle;Signal;HPM_P1;HPM_P2
2022/10/08 00:02:18;;;;;;;7.13;6.43;;;;;;;-144.22;100.00;60274.75;6085670;29;20247;-70
2022/10/08 00:05:20;;;;;;;7.20;6.57;;;;;;;-144.22;100.00;60274.75;6086457;29;20231;-70
2022/10/08 00:08:23;;;;;;;8.87;6.63;;;;;;;-144.22;100.00;60274.75;6085976;29;20780;-70
2022/10/08 00:11:34;;;;;;;6.53;5.93;;;;;;;-144.22;100.00;60274.75;6085362;29;20227;-70
2022/10/08 00:14:39;;;;;;;7.67;6.93;;;;;;;-144.22;100.00;60274.75;6070392;29;20713;-70
2022/10/08 00:17:41;;;;;;;7.20;6.50;;;;;;;-144.22;100.00;60274.75;6086162;29;20241;-70
2022/10/08 00:20:43;;;;;;;8.33;6.40;;;;;;;-144.22;100.00;60274.75;6086018;29;20231;-70
2022/10/08 00:23:47;;;;;;;6.80;6.20;;;;;;;-144.22;100.00;60274.75;6085243;29;20239;-70
2022/10/08 00:26:51;;;;;;;8.23;6.27;;;;;;;-144.22;100.00;60274.75;6084978;29;20249;-70
2022/10/08 00:29:54;;;;;;;7.03;6.33;;;;;;;-144.22;100.00;60274.75;6073706;29;20853;-70
2022/10/08 00:32:57;;;;;;;7.23;6.53;;;;;;;-144.22;100.00;60274.75;6071817;29;20328;-69
2022/10/08 00:36:02;;;;;;;7.60;6.73;;;;;;;-144.22;100.00;60274.75;6084558;29;20312;-70
2022/10/08 00:39:11;;;;;;;8.53;7.63;;;;;;;-144.22;100.00;60274.75;6082897;29;20208;-70
2022/10/08 00:42:13;;;;;;;10.27;7.77;;;;;;;-144.22;100.00;60274.75;6086129;29;20579;-70
2022/10/08 00:45:15;;;;;;;9.13;7.17;;;;;;;-144.22;100.00;60274.75;6068851;29;20231;-70
2022/10/08 00:48:24;;;;;;;7.60;6.90;;;;;;;-144.22;100.00;60274.75;6085886;29;20221;-70
2022/10/08 00:51:27;;;;;;;8.23;7.43;;;;;;;-144.22;100.00;60274.75;6068140;29;20605;-69
2022/10/08 00:54:31;;;;;;;7.50;6.80;;;;;;;-144.22;100.00;60274.75;6085114;29;20236;-69
2022/10/08 00:57:35;;;;;;;8.80;7.90;;;;;;;-144.22;100.00;60274.75;6090683;29;20683;-70
2022/10/08 01:00:37;;;;;;;9.00;7.37;;;;;;;-144.22;100.00;60274.75;6088533;29;20234;-69
2022/10/08 01:03:39;;;;;;;9.20;7.97;;;;;;;-144.22;100.00;60274.75;6090224;29;20247;-70
2022/10/08 01:06:59;;;;;;;8.97;7.53;;;;;;;-144.22;100.00;60274.75;6069394;29;20564;-70
2022/10/08 01:10:10;;;;;;;7.63;6.90;;;;;;;-144.22;100.00;60274.75;6070005;29;20256;-70
2022/10/08 01:13:30;;;;;;;8.73;7.83;;;;;;;-144.22;100.00;60274.75;6089828;29;20253;-70
2022/10/08 01:16:45;;;;;;;9.03;8.10;;;;;;;-144.22;100.00;60274.75;6088626;29;20645;-70
2022/10/08 01:19:56;;;;;;;10.00;7.33;;;;;;;-144.22;100.00;60274.75;6066254;29;20241;-69
2022/10/08 01:23:19;;;;;;;10.77;7.47;;;;;;;-144.22;100.00;60274.75;6072844;29;20237;-69
2022/10/08 01:26:41;;;;;;;9.03;7.90;;;;;;;-144.22;100.00;60274.75;6068730;29;20235;-69
2022/10/08 01:29:47;;;;;;;9.73;7.07;;;;;;;-144.22;100.00;60274.75;6073593;29;20616;-70
2022/10/08 01:33:11;;;;;;;10.77;7.83;;;;;;;-144.22;100.00;60274.75;6086627;29;20241;-69
2022/10/08 01:36:16;;;;;;;7.50;6.80;;;;;;;-144.22;100.00;60274.75;6088587;29;20243;-70
2022/10/08 01:39:21;;;;;;;8.33;7.37;;;;;;;-144.22;100.00;60274.75;6089308;29;20231;-69
2022/10/08 01:42:25;;;;;;;8.27;6.30;;;;;;;-144.22;100.00;60274.75;6077256;29;20238;-70
2022/10/08 01:45:34;;;;;;;9.00;7.33;;;;;;;-144.22;100.00;60274.75;6088820;29;20236;-70
2022/10/08 01:48:41;;;;;;;8.03;7.13;;;;;;;-144.22;100.00;60274.75;6088997;29;20241;-69
2022/10/08 01:52:30;;;;;;;7.83;6.93;;;;;;;-144.22;100.00;60274.75;6089538;29;20740;-70
2022/10/08 01:55:39;;;;;;;8.10;7.33;;;;;;;-144.22;100.00;60274.75;6071976;29;20311;-70
2022/10/08 01:59:05;;;;;;;9.17;7.40;;;;;;;-144.22;100.00;60274.75;6086160;29;20268;-70
2022/10/08 02:02:20;;;;;;;7.07;6.37;;;;;;;-144.22;100.00;60274.75;6070589;29;20238;-69
2022/10/08 02:05:27;;;;;;;7.13;6.43;;;;;;;-144.22;100.00;60274.75;6087155;29;20610;-70
2022/10/08 02:08:29;;;;;;;7.57;6.60;;;;;;;-144.22;100.00;60274.75;6072122;29;20216;-70
2022/10/08 02:11:32;;;;;;;6.53;5.87;;;;;;;-144.22;100.00;60274.75;6072143;29;20725;-69
2022/10/08 02:14:39;;;;;;;8.87;7.53;;;;;;;-144.22;100.00;60274.75;6064763;29;20233;-70
2022/10/08 02:18:06;;;;;;;9.13;7.00;;;;;;;-144.22;100.00;60274.75;6085494;29;20229;-69
2022/10/08 02:21:18;;;;;;;10.87;7.10;;;;;;;-144.22;100.00;60274.75;6088552;29;20626;-70
2022/10/08 02:24:30;;;;;;;7.97;7.13;;;;;;;-144.22;100.00;60274.75;6071294;29;20224;-70
2022/10/08 02:27:45;;;;;;;7.97;7.17;;;;;;;-144.22;100.00;60274.75;6089013;29;20271;-69
2022/10/08 02:30:55;;;;;;;10.47;8.67;;;;;;;-144.22;100.00;60274.75;6083381;29;20244;-70
2022/10/08 02:34:06;;;;;;;10.83;9.33;;;;;;;-144.22;100.00;60274.75;6087343;29;20603;-69
2022/10/08 02:37:12;;;;;;;11.90;9.67;;;;;;;-144.22;100.00;60274.75;6087103;29;20245;-69
2022/10/08 02:40:16;;;;;;;11.17;8.67;;;;;;;-144.22;100.00;60274.75;6070552;29;20726;-70
2022/10/08 02:43:28;;;;;;;12.47;10.33;;;;;;;-144.22;100.00;60274.75;6087976;29;20662;-70
2022/10/08 02:46:34;;;;;;;15.43;11.80;;;;;;;-144.22;100.00;60274.75;6088839;29;20855;-69
2022/10/08 02:49:40;;;;;;;16.73;13.40;;;;;;;-144.22;100.00;60274.75;6070755;29;20272;-69
2022/10/08 02:52:46;;;;;;;13.70;11.23;;;;;;;-144.22;100.00;60274.75;6070690;29;20779;-69
2022/10/08 02:55:55;;;;;;;17.33;11.53;;;;;;;-144.22;100.00;60274.75;6086429;29;20238;-70
2022/10/08 02:58:57;;;;;;;13.37;11.43;;;;;;;-144.22;100.00;60274.75;6087121;29;20234;-70
2022/10/08 03:02:04;;;;;;;15.43;12.30;;;;;;;-144.22;100.00;60274.75;6078468;29;20264;-69
2022/10/08 03:05:13;;;;;;;18.97;12.07;;;;;;;-144.22;100.00;60274.75;6086266;29;20257;-69
2022/10/08 03:08:15;;;;;;;16.37;12.13;;;;;;;-144.22;100.00;60274.75;6062050;29;20544;-69
2022/10/08 03:11:17;;;;;;;14.57;12.80;;;;;;;-144.22;100.00;60274.75;6071783;29;20251;-70
2022/10/08 03:14:22;;;;;;;15.00;11.33;;;;;;;-144.22;100.00;60274.75;6069817;29;20749;-70
2022/10/08 03:17:30;;;;;;;14.00;12.50;;;;;;;-144.22;100.00;60274.75;6086697;29;20239;-70
2022/10/08 03:20:33;;;;;;;15.50;12.73;;;;;;;-144.22;100.00;60274.75;6086574;29;20238;-70
2022/10/08 03:23:34;;;;;;;16.37;12.70;;;;;;;-144.22;100.00;60274.75;6086541;29;20230;-69
2022/10/08 03:26:37;;;;;;;15.27;12.20;;;;;;;-144.22;100.00;60274.75;6086778;29;20584;-69
2022/10/08 03:29:39;;;;;;;15.50;12.87;;;;;;;-144.22;100.00;60274.75;6076124;29;20657;-69
2022/10/08 03:32:41;;;;;;;16.90;13.17;;;;;;;-144.22;100.00;60274.75;6077071;29;20636;-69
2022/10/08 03:35:45;;;;;;;14.97;12.80;;;;;;;-144.22;100.00;60274.75;6086379;29;20605;-71
2022/10/08 03:38:48;;;;;;;16.07;13.57;;;;;;;-144.22;100.00;60274.75;6086367;29;20267;-69
2022/10/08 03:41:50;;;;;;;15.83;13.00;;;;;;;-144.22;100.00;60274.75;6084826;29;20628;-70
2022/10/08 03:44:53;;;;;;;19.57;14.30;;;;;;;-144.22;100.00;60274.75;6086636;29;20239;-70
2022/10/08 03:47:55;;;;;;;21.27;15.40;;;;;;;-144.22;100.00;60274.75;6086269;29;20237;-70
2022/10/08 03:51:00;;;;;;;15.37;12.60;;;;;;;-144.22;100.00;60274.75;6086035;29;20712;-70
2022/10/08 03:54:02;;;;;;;18.87;14.57;;;;;;;-144.22;100.00;60274.75;6086200;29;20242;-70
2022/10/08 03:57:04;;;;;;;21.37;15.13;;;;;;;-144.22;100.00;60274.75;6085753;29;20670;-70
2022/10/08 04:00:06;;;;;;;18.17;14.07;;;;;;;-144.22;100.00;60274.75;6085712;29;20689;-70
2022/10/08 04:03:09;;;;;;;19.87;15.37;;;;;;;-144.22;100.00;60274.75;6069541;29;20227;-70
2022/10/08 04:06:12;;;;;;;20.83;15.90;;;;;;;-144.22;100.00;60274.75;6085139;29;20774;-70
2022/10/08 04:09:14;;;;;;;24.30;17.57;;;;;;;-144.22;100.00;60274.75;6085886;29;20670;-70
2022/10/08 04:12:16;;;;;;;20.93;15.30;;;;;;;-144.22;100.00;60274.75;6069589;29;20274;-70
2022/10/08 04:15:19;;;;;;;25.10;18.00;;;;;;;-144.22;100.00;60274.75;6085411;29;20227;-70
2022/10/08 04:18:20;;;;;;;25.33;18.80;;;;;;;-144.22;100.00;60274.75;6069173;29;20241;-70
2022/10/08 04:21:22;;;;;;;24.97;19.07;;;;;;;-144.22;100.00;60274.75;6085889;29;20231;-70
2022/10/08 04:24:24;;;;;;;25.43;19.73;;;;;;;-144.22;100.00;60274.75;6085590;29;20233;-70
2022/10/08 04:27:26;;;;;;;40.63;25.17;;;;;;;-144.22;100.00;60274.75;6086256;29;20247;-70
2022/10/08 04:30:29;;;;;;;23.83;18.50;;;;;;;-144.22;100.00;60274.75;6071361;29;20239;-70
2022/10/08 04:33:32;;;;;;;25.97;19.77;;;;;;;-144.22;100.00;60274.75;6070703;29;20299;-70
2022/10/08 04:36:34;;;;;;;26.33;19.60;;;;;;;-144.22;100.00;60274.75;6089064;29;20242;-70
2022/10/08 04:39:36;;;;;;;24.33;18.83;;;;;;;-144.22;100.00;60274.75;6091179;29;20246;-69
2022/10/08 04:42:38;;;;;;;29.53;21.10;;;;;;;-144.22;100.00;60274.75;6090166;29;20235;-70
2022/10/08 04:45:44;;;;;;;31.03;21.07;;;;;;;-144.22;100.00;60274.75;6090311;29;20733;-70
2022/10/08 04:48:54;;;;;;;29.67;21.37;;;;;;;-144.22;100.00;60274.75;6076261;29;20235;-70
2022/10/08 04:51:56;;;;;;;28.73;20.20;;;;;;;-144.22;100.00;60274.75;6078005;29;20242;-70
2022/10/08 04:54:58;;;;;;;32.43;21.03;;;;;;;-144.22;100.00;60274.75;6088627;29;20239;-70
2022/10/08 04:58:00;;;;;;;28.20;19.83;;;;;;;-144.22;100.00;60274.75;6089506;29;20720;-70
2022/10/08 05:01:07;;;;;;;30.03;20.30;;;;;;;-144.22;100.00;60274.75;6091287;29;20242;-70
2022/10/08 05:04:09;;;;;;;30.47;20.57;;;;;;;-144.22;100.00;60274.75;6089327;29;20239;-70
2022/10/08 05:07:11;;;;;;;26.83;19.23;;;;;;;-144.22;100.00;60274.75;6089675;29;20243;-70
2022/10/08 05:10:13;;;;;;;27.87;19.07;;;;;;;-144.22;100.00;60274.75;6090703;29;20721;-70
2022/10/08 05:13:15;;;;;;;24.00;17.80;;;;;;;-144.22;100.00;60274.75;6090630;29;20239;-70
2022/10/08 05:16:18;;;;;;;21.33;16.57;;;;;;;-144.22;100.00;60274.75;6091068;29;20228;-70
2022/10/08 05:19:20;;;;;;;22.73;17.13;;;;;;;-144.22;100.00;60274.75;6090299;29;20242;-70
2022/10/08 05:22:22;;;;;;;22.40;17.67;;;;;;;-144.22;100.00;60274.75;6073559;29;20243;-70
2022/10/08 05:25:24;;;;;;;25.67;17.57;;;;;;;-144.22;100.00;60274.75;6089829;29;20698;-70
2022/10/08 05:28:26;;;;;;;21.87;17.13;;;;;;;-144.22;100.00;60274.75;6089383;29;20729;-70
2022/10/08 05:31:29;;;;;;;27.00;19.57;;;;;;;-144.22;100.00;60274.75;6066299;29;20236;-70
2022/10/08 05:34:31;;;;;;;25.80;19.80;;;;;;;-144.22;100.00;60274.75;6086094;29;20239;-70
2022/10/08 05:37:33;;;;;;;23.63;17.43;;;;;;;-144.22;100.00;60274.75;6070686;29;20292;-70
2022/10/08 05:40:35;;;;;;;24.70;20.20;;;;;;;-144.22;100.00;60274.75;6084238;29;20340;-70
2022/10/08 05:43:38;;;;;;;23.20;18.13;;;;;;;-144.22;100.00;60274.75;6089026;29;20243;-70
2022/10/08 05:46:40;;;;;;;19.20;16.67;;;;;;;-144.22;100.00;60274.75;6089527;29;20239;-70
2022/10/08 05:49:42;;;;;;;25.23;18.77;;;;;;;-144.22;100.00;60274.75;6072349;29;20239;-70
2022/10/08 05:52:44;;;;;;;25.57;17.93;;;;;;;-144.22;100.00;60274.75;6093599;29;20549;-70
2022/10/08 05:55:46;;;;;;;23.30;18.77;;;;;;;-144.22;100.00;60274.75;6059053;29;20243;-70
2022/10/08 05:58:49;;;;;;;22.73;19.10;;;;;;;-144.22;100.00;60274.75;6071944;29;20718;-70
2022/10/08 06:01:51;;;;;;;18.83;16.70;;;;;;;-144.22;100.00;60274.75;6071496;29;20246;-70
2022/10/08 06:04:53;;;;;;;18.80;16.73;;;;;;;-144.22;100.00;60274.75;6063528;29;20611;-70
2022/10/08 06:07:58;;;;;;;18.73;16.03;;;;;;;-144.22;100.00;60274.75;6065126;29;20247;-70
2022/10/08 06:11:01;;;;;;;18.07;16.03;;;;;;;-144.22;100.00;60274.75;6075275;29;20300;-70
2022/10/08 06:14:05;;;;;;;18.30;15.57;;;;;;;-144.22;100.00;60274.75;6086844;29;20279;-70
2022/10/08 06:17:07;;;;;;;20.63;17.50;;;;;;;-144.22;100.00;60274.75;6088247;29;20252;-70
2022/10/08 06:20:09;;;;;;;18.27;15.33;;;;;;;-144.22;100.00;60274.75;6086268;29;20242;-70
2022/10/08 06:23:11;;;;;;;16.13;14.47;;;;;;;-144.22;100.00;60274.75;6071469;29;20246;-70
2022/10/08 06:26:13;;;;;;;21.23;16.47;;;;;;;-144.22;100.00;60274.75;6087886;29;20719;-70
2022/10/08 06:29:17;;;;;;;15.30;12.97;;;;;;;-144.22;100.00;60274.75;6074905;29;20259;-70
2022/10/08 06:32:19;;;;;;;17.17;13.33;;;;;;;-144.22;100.00;60274.75;6064441;29;20713;-71
2022/10/08 06:35:21;;;;;;;15.13;13.47;;;;;;;-144.22;100.00;60274.75;6076732;29;20235;-71
2022/10/08 06:38:23;;;;;;;17.47;15.23;;;;;;;-144.22;100.00;60274.75;6086783;29;20228;-70
2022/10/08 06:41:26;;;;;;;17.77;15.00;;;;;;;-144.22;100.00;60274.75;6087420;29;20684;-70
2022/10/08 06:44:28;;;;;;;16.10;14.13;;;;;;;-144.22;100.00;60274.75;6071380;29;20274;-70
2022/10/08 06:47:30;;;;;;;16.80;14.53;;;;;;;-144.22;100.00;60274.75;6087559;29;20248;-70
2022/10/08 06:50:33;;;;;;;19.47;17.00;;;;;;;-144.22;100.00;60274.75;6062033;29;20247;-70
2022/10/08 06:53:35;;;;;;;17.20;14.50;;;;;;;-144.22;100.00;60274.75;6083344;29;20242;-70
2022/10/08 06:56:37;;;;;;;23.17;19.60;;;;;;;-144.22;100.00;60274.75;6069565;29;20243;-70
2022/10/08 06:59:39;;;;;;;20.67;18.00;;;;;;;-144.22;100.00;60274.75;6070025;29;20231;-70
2022/10/08 07:02:43;;;;;;;19.03;16.60;;;;;;;-144.22;100.00;60274.75;6076186;29;20254;-70
2022/10/08 07:05:45;;;;;;;21.17;18.37;;;;;;;-144.22;100.00;60274.75;6070428;29;20326;-71
2022/10/08 07:08:54;;;;;;;20.37;16.47;;;;;;;-144.22;100.00;60274.75;6086159;29;20239;-70
2022/10/08 07:11:56;;;;;;;16.40;14.63;;;;;;;-144.22;100.00;60274.75;6086215;29;20243;-71
2022/10/08 07:14:59;;;;;;;19.60;15.23;;;;;;;-144.22;100.00;60274.75;6085229;29;20390;-70
2022/10/08 07:18:01;;;;;;;20.67;17.47;;;;;;;-144.22;100.00;60274.75;6084709;29;20241;-71
2022/10/08 07:21:04;;;;;;;18.20;16.30;;;;;;;-144.22;100.00;60274.75;6066044;29;20220;-71
2022/10/08 07:24:06;;;;;;;16.33;14.57;;;;;;;-144.22;100.00;60274.75;6085516;29;20254;-70
2022/10/08 07:27:08;;;;;;;18.03;15.47;;;;;;;-144.22;100.00;60274.75;6068083;29;20255;-70
2022/10/08 07:30:10;;;;;;;17.83;15.57;;;;;;;-144.22;100.00;60274.75;6082042;29;20239;-71
2022/10/08 07:33:12;;;;;;;18.60;16.10;;;;;;;-144.22;100.00;60274.75;6084716;29;20230;-71
2022/10/08 07:36:17;;;;;;;19.67;16.93;;;;;;;-144.22;100.00;60274.75;6069607;29;20212;-70
2022/10/08 07:39:19;;;;;;;20.80;18.13;;;;;;;-144.22;100.00;60274.75;6085285;29;20719;-70
2022/10/08 07:42:21;;;;;;;18.17;15.07;;;;;;;-144.22;100.00;60274.75;6084850;29;20235;-71
2022/10/08 07:45:23;;;;;;;18.90;15.47;;;;;;;-144.22;100.00;60274.75;6085433;29;20224;-70
2022/10/08 07:48:29;;;;;;;18.37;16.37;;;;;;;-144.22;100.00;60274.75;6068239;29;20363;-71
2022/10/08 07:51:35;;;;;;;19.47;16.17;;;;;;;-144.22;100.00;60274.75;6086363;29;20247;-70
2022/10/08 07:54:37;;;;;;;18.93;16.43;;;;;;;-144.22;100.00;60274.75;6085726;29;20305;-70
2022/10/08 07:57:39;;;;;;;18.77;16.63;;;;;;;-144.22;100.00;60274.75;6068041;29;20239;-70
2022/10/08 08:00:41;;;;;;;17.90;14.90;;;;;;;-144.22;100.00;60274.75;6061851;29;20247;-70
2022/10/08 08:03:43;;;;;;;17.27;14.80;;;;;;;-144.22;100.00;60274.75;6061387;29;20308;-70
2022/10/08 08:06:47;;;;;;;15.27;13.70;;;;;;;-144.22;100.00;60274.75;6062175;29;20248;-70
2022/10/08 08:09:49;;;;;;;15.87;14.17;;;;;;;-144.22;100.00;60274.75;6060666;29;20229;-70
2022/10/08 08:12:51;;;;;;;16.77;14.53;;;;;;;-144.22;100.00;60274.75;6065511;29;20602;-70
2022/10/08 08:16:01;;;;;;;18.00;15.50;;;;;;;-144.22;100.00;60274.75;6064508;29;20239;-70
2022/10/08 08:19:03;;;;;;;16.40;14.13;;;;;;;-144.22;100.00;60274.75;6045530;29;20252;-70
2022/10/08 08:22:06;;;;;;;16.60;14.73;;;;;;;-144.22;100.00;60274.75;6061751;29;20232;-70
2022/10/08 08:25:08;;;;;;;15.87;13.47;;;;;;;-144.22;100.00;60274.75;6061749;29;20236;-70
2022/10/08 08:28:10;;;;;;;19.70;16.90;;;;;;;-144.22;100.00;60274.75;6066198;29;20640;-70
2022/10/08 08:31:13;;;;;;;18.63;15.37;;;;;;;-144.22;100.00;60274.75;6062040;29;20248;-70
2022/10/08 08:34:21;;;;;;;16.30;13.20;;;;;;;-144.22;100.00;60274.75;6061260;29;20235;-70
2022/10/08 08:37:23;;;;;;;15.73;14.10;;;;;;;-144.22;100.00;60274.75;6059702;29;20638;-70
2022/10/08 08:40:27;;;;;;;17.30;14.27;;;;;;;-144.22;100.00;60274.75;6044318;29;20240;-69
2022/10/08 08:43:29;;;;;;;20.73;17.80;;;;;;;-144.22;100.00;60274.75;6061082;29;20244;-69
2022/10/08 08:46:35;;;;;;;19.97;17.80;;;;;;;-144.22;100.00;60274.75;6062210;29;20273;-70
2022/10/08 08:49:44;;;;;;;21.60;17.97;;;;;;;-144.22;100.00;60274.75;6060809;29;20319;-70
2022/10/08 08:52:47;;;;;;;21.03;15.87;;;;;;;-144.22;81.49;74177.47;6060197;29;20232;-70
2022/10/08 08:55:54;;;;;;;18.10;15.67;;;;;;;15.78;80.42;98142.69;6070007;29;20244;-70
2022/10/08 08:59:04;;;;;;;20.50;16.83;;;;;;;15.75;80.29;98143.00;6072915;29;20247;-71
2022/10/08 09:02:23;;;;;;;17.07;14.63;;;;;;;15.79;80.50;98136.38;6082867;29;20232;-70
2022/10/08 09:05:27;;;;;;;19.73;16.13;;;;;;;15.97;79.69;98139.13;6084673;29;20618;-70
2022/10/08 09:08:34;;;;;;;25.43;18.77;;;;;;;16.04;78.89;98134.06;6084699;29;20235;-70
2022/10/08 09:11:38;;;;;;;23.93;18.40;;;;;;;16.32;78.80;98132.25;6083551;29;20259;-70
2022/10/08 09:14:46;;;;;;;23.67;19.23;;;;;;;-144.22;100.00;60274.75;6082537;29;20236;-70
2022/10/08 09:17:52;;;;;;;26.17;19.77;;;;;;;16.58;100.00;60274.75;6087418;29;20240;-71
2022/10/08 09:20:54;;;;;;;27.23;20.93;;;;;;;-144.22;100.00;60274.75;6088400;29;20232;-70
2022/10/08 09:23:56;;;;;;;25.27;19.33;;;;;;;-144.22;100.00;60274.75;6088607;29;20246;-69
2022/10/08 09:26:59;;;;;;;21.83;16.07;;;;;;;17.26;100.00;60274.75;6088907;29;20236;-70
2022/10/08 09:30:01;;;;;;;18.67;15.33;;;;;;;-144.22;100.00;60274.75;6082566;29;20607;-70
2022/10/08 09:33:12;;;;;;;16.73;12.93;;;;;;;-144.22;100.00;60274.75;6088545;29;20671;-70
2022/10/08 09:36:31;;;;;;;19.27;15.00;;;;;;;-144.22;100.00;60274.75;6086722;29;20575;-69
2022/10/08 09:39:36;;;;;;;15.27;12.33;;;;;;;-144.22;100.00;60274.75;6088628;29;20311;-70
2022/10/08 09:42:38;;;;;;;16.90;13.10;;;;;;;188.01;100.00;60274.75;6089722;29;20448;-69
2022/10/08 09:45:44;;;;;;;17.10;13.37;;;;;;;-144.22;100.00;60274.75;6070959;29;20235;-70
2022/10/08 09:48:46;;;;;;;18.20;12.30;;;;;;;-144.22;100.00;60274.75;6087701;29;20730;-71
2022/10/08 09:51:49;;;;;;;15.20;11.73;;;;;;;-144.22;100.00;60274.75;6088086;29;20239;-71
2022/10/08 09:54:57;;;;;;;15.17;11.80;;;;;;;-144.22;100.00;60274.75;6101680;29;20247;-71
2022/10/08 09:58:01;;;;;;;13.53;10.90;;;;;;;-144.22;100.00;60274.75;6087246;29;20243;-71
2022/10/08 10:01:13;;;;;;;16.97;11.33;;;;;;;-144.22;100.00;60274.75;6087368;29;20614;-71
2022/10/08 10:04:35;;;;;;;14.00;9.73;;;;;;;-144.22;100.00;60274.75;6088517;29;20275;-71
2022/10/08 10:07:39;;;;;;;13.83;11.70;;;;;;;-144.22;100.00;60274.75;6087663;29;20243;-70
2022/10/08 10:10:47;;;;;;;14.83;12.60;;;;;;;19.76;100.00;60274.75;6085419;29;20247;-70
2022/10/08 10:13:50;;;;;;;15.40;11.53;;;;;;;-144.22;100.00;60274.75;6087505;29;20240;-70
2022/10/08 10:17:00;;;;;;;12.97;10.10;;;;;;;20.44;100.00;60274.75;6085527;29;20235;-70
2022/10/08 10:20:14;;;;;;;12.10;10.47;;;;;;;-144.22;100.00;60274.75;6086148;29;20243;-70
2022/10/08 10:23:46;;;;;;;9.57;8.10;;;;;;;-144.22;100.00;60274.75;6070040;29;20236;-69
2022/10/08 10:26:53;;;;;;;10.27;7.03;;;;;;;-144.22;100.00;60274.75;6086662;29;20239;-70
2022/10/08 10:30:16;;;;;;;8.30;7.20;;;;;;;21.52;100.00;80643.34;6074759;29;20237;-70
2022/10/08 10:33:31;;;;;;;10.10;7.53;;;;;;;21.73;100.00;60274.75;6063661;29;20772;-70
2022/10/08 10:36:37;;;;;;;14.67;10.37;;;;;;;42.51;100.00;60274.75;6062944;29;20300;-70
2022/10/08 10:39:57;;;;;;;15.60;11.77;;;;;;;-144.22;100.00;60274.75;6062983;29;20670;-70
2022/10/08 10:43:14;;;;;;;16.33;12.33;;;;;;;-144.22;100.00;60274.75;6063368;29;20233;-70
2022/10/08 10:46:30;;;;;;;15.33;11.43;;;;;;;-144.22;100.00;60274.75;6046339;29;20237;-70
2022/10/08 10:49:36;;;;;;;13.33;11.30;;;;;;;-144.22;100.00;60274.75;6064336;29;20271;-70
2022/10/08 10:53:01;;;;;;;13.30;11.23;;;;;;;-144.22;100.00;60274.75;6062297;29;20228;-70
2022/10/08 10:56:27;;;;;;;13.43;10.43;;;;;;;24.34;100.00;60274.75;6046572;29;20586;-70
2022/10/08 10:59:43;;;;;;;14.60;11.67;;;;;;;-144.22;100.00;60274.75;6076184;29;20557;-71
2022/10/08 11:02:57;;;;;;;15.20;11.10;;;;;;;-144.22;100.00;60274.75;6086584;29;20356;-70
2022/10/08 11:06:29;;;;;;;15.93;12.40;;;;;;;-144.22;100.00;60274.75;6085547;29;20232;-70
2022/10/08 11:09:59;;;;;;;15.87;9.97;;;;;;;-144.22;100.00;60274.75;6085765;29;20235;-71
2022/10/08 11:13:43;;;;;;;13.20;9.83;;;;;;;-144.22;100.00;60274.75;6070141;29;20236;-70
2022/10/08 11:17:16;;;;;;;13.23;9.73;;;;;;;-144.22;100.00;60274.75;6085458;29;20240;-71
2022/10/08 11:20:56;;;;;;;11.73;9.23;;;;;;;-144.22;100.00;60274.75;6041269;29;20231;-71
2022/10/08 11:24:35;;;;;;;11.60;9.10;;;;;;;-144.22;100.00;60274.75;6068554;29;20263;-71
2022/10/08 11:27:49;;;;;;;10.80;7.90;;;;;;;-144.22;100.00;60274.75;6086481;29;20239;-71
2022/10/08 11:31:06;;;;;;;10.97;9.00;;;;;;;-144.22;100.00;60274.75;6081064;29;20239;-70
2022/10/08 11:34:30;;;;;;;14.47;8.37;;;;;;;-144.22;100.00;60274.75;6084690;29;20232;-69
2022/10/08 11:37:54;;;;;;;9.27;7.90;;;;;;;-144.22;100.00;60274.75;6084896;29;20232;-70
2022/10/08 11:41:23;;;;;;;11.13;7.27;;;;;;;-144.22;100.00;60274.75;6085308;29;20236;-70
2022/10/08 11:44:25;;;;;;;9.83;7.33;;;;;;;-144.22;100.00;60274.75;6085851;29;20608;-70
2022/10/08 11:47:42;;;;;;;13.30;9.00;;;;;;;-144.22;100.00;60274.75;6085097;29;20228;-71
2022/10/08 11:50:44;;;;;;;10.07;7.90;;;;;;;-144.22;100.00;60274.75;6068866;29;20239;-71
2022/10/08 11:54:02;;;;;;;8.57;7.33;;;;;;;-144.22;100.00;60274.75;6088233;29;20251;-71
2022/10/08 11:57:35;;;;;;;9.10;7.17;;;;;;;-144.22;100.00;60274.75;6084669;29;20243;-72
2022/10/08 12:01:05;;;;;;;14.63;9.20;;;;;;;-144.22;100.00;60274.75;6061924;29;20244;-71
2022/10/08 12:04:36;;;;;;;9.30;7.20;;;;;;;-144.22;100.00;60274.75;6045300;29;20236;-71
2022/10/08 12:07:39;;;;;;;8.27;6.13;;;;;;;-144.22;100.00;60274.75;6056117;29;20243;-71
2022/10/08 12:10:41;;;;;;;8.80;4.73;;;;;;;-144.22;100.00;60274.75;6062651;29;20300;-70
2022/10/08 12:14:03;;;;;;;7.70;4.63;;;;;;;-144.22;100.00;60274.75;6061363;29;20243;-71
2022/10/08 12:17:05;;;;;;;8.10;6.30;;;;;;;-144.22;100.00;60274.75;6062674;29;20245;-71
2022/10/08 12:20:27;;;;;;;7.80;5.37;;;;;;;-144.22;100.00;60274.75;6045515;29;20239;-71
2022/10/08 12:23:30;;;;;;;7.70;3.10;;;;;;;-144.22;100.00;60274.75;6061856;29;20264;-71
2022/10/08 12:26:32;;;;;;;5.53;2.58;;;;;;;63.28;100.00;60274.75;6061959;29;20228;-70
2022/10/08 12:29:53;;;;;;;8.97;2.60;;;;;;;-144.22;100.00;60274.75;6060298;29;20239;-70
2022/10/08 12:32:56;;;;;;;9.97;6.30;;;;;;;104.84;100.00;60274.75;6084771;29;20602;-71
2022/10/08 12:36:18;;;;;;;12.67;8.10;;;;;;;-144.22;100.00;60274.75;6084106;29;20243;-71
2022/10/08 12:39:40;;;;;;;11.63;7.10;;;;;;;188.01;100.00;60274.75;6085113;29;20244;-70
2022/10/08 12:42:42;;;;;;;9.13;6.97;;;;;;;-144.22;100.00;60274.75;6084644;29;20243;-71
2022/10/08 12:46:00;;;;;;;7.70;4.47;;;;;;;-144.22;100.00;60274.75;6083250;29;20235;-71
2022/10/08 12:49:14;;;;;;;6.63;4.47;;;;;;;-144.22;100.00;60274.75;6085334;29;20244;-71
2022/10/08 12:52:18;;;;;;;8.80;6.55;;;;;;;-144.22;100.00;60274.75;6087015;29;20588;-71
2022/10/08 12:55:22;;;;;;;11.88;6.40;;;;;;;-144.22;100.00;60274.75;6088507;29;20235;-72
2022/10/08 12:58:28;;;;;;;7.25;4.03;;;;;;;-144.22;100.00;60274.75;6082478;29;20708;-71
2022/10/08 13:01:31;;;;;;;8.70;4.00;;;;;;;-144.22;100.00;60274.75;6049060;29;20407;-70
2022/10/08 13:04:33;;;;;;;4.05;2.88;;;;;;;-144.22;100.00;60274.75;6066653;29;20712;-71
2022/10/08 13:07:35;;;;;;;3.85;2.38;;;;;;;32.13;100.00;60274.75;6065413;29;20340;-71
2022/10/08 13:10:37;;;;;;;7.25;2.97;;;;;;;-144.22;100.00;60274.75;6065521;29;20239;-71
2022/10/08 13:13:41;;;;;;;5.65;2.67;;;;;;;29.53;100.00;60274.75;6064896;29;20241;-71
2022/10/08 13:16:45;;;;;;;4.10;2.45;;;;;;;-144.22;100.00;60274.75;6065324;29;20244;-70
2022/10/08 13:19:47;;;;;;;4.68;2.80;;;;;;;-144.22;100.00;60274.75;6066514;29;20242;-71
2022/10/08 13:22:50;;;;;;;6.45;2.80;;;;;;;-144.22;100.00;60274.75;6064641;29;20244;-71
2022/10/08 13:25:52;;;;;;;3.15;2.72;;;;;;;-144.22;100.00;60274.75;6078959;29;20742;-70
2022/10/08 13:29:16;;;;;;;5.13;2.70;;;;;;;-144.22;100.00;60274.75;6068955;29;20246;-70
2022/10/08 13:32:21;;;;;;;5.93;2.60;;;;;;;23.61;100.00;60274.75;6089011;29;20708;-70
2022/10/08 13:35:24;;;;;;;2.72;2.45;;;;;;;-144.22;100.00;60274.75;6071583;29;20232;-70
2022/10/08 13:38:32;;;;;;;4.13;2.15;;;;;;;-144.22;100.00;60274.75;6088594;29;20234;-71
2022/10/08 13:41:34;;;;;;;4.57;2.80;;;;;;;-144.22;100.00;60274.75;6090212;29;20236;-70
2022/10/08 13:44:39;;;;;;;3.30;2.47;;;;;;;-144.22;100.00;60274.75;6087800;29;20247;-71
2022/10/08 13:47:41;;;;;;;3.13;2.30;;;;;;;-144.22;100.00;60274.75;6088757;29;20718;-70
2022/10/08 13:50:51;;;;;;;4.50;2.63;;;;;;;-144.22;100.00;60274.75;6087999;29;20235;-71
2022/10/08 13:53:52;;;;;;;4.27;2.63;;;;;;;-144.22;100.00;60274.75;6088227;29;20251;-71
2022/10/08 13:56:57;;;;;;;6.83;3.00;;;;;;;-144.22;100.00;60274.75;6086768;29;20228;-71
2022/10/08 13:59:59;;;;;;;4.77;2.77;;;;;;;-144.22;100.00;60274.75;6086528;29;20240;-71
2022/10/08 14:03:02;;;;;;;8.00;2.70;;;;;;;-144.22;100.00;60274.75;6087376;29;20238;-71